Latest Coastal Weather Observations for Friendly Beaches

IDT60701

Issued at 5:55 am EDT Sunday 26 October 2014 (issued every 10 minutes, with the page automatically refreshed every 10 minutes)

About coastal observations | Map of coastal stations | Coastal observations for TAS | Marine services | Other Formats
Station Details ID: 092114 Name: FRIENDLY BEACHES Lat: -42.00 Lon: 148.28 Height: 55.0 m
Data from the previous 72 hours. | See also: Recent months at Friendly Beaches
Date/Time
EDT
Temp

°C
Wind Pressure Rain
since 9am
mm
Weather Cloud Vis
km
Sea
Height
m
Swell
Dir
 
Speed
knots
Gust
knots
hPa Trend Height
m
Period
s
Dir
26/05:30am 11.3 NNW 1 2 1013.8 - 5.6 - - - - - - -
26/05:00am 11.4 NW 3 5 1014.0 - 5.4 - - - - - - -
26/04:30am 11.7 N 3 7 1014.3 - 4.4 - - - - - - -
26/04:00am 11.6 NE 5 9 1014.1 - 4.0 - - - - - - -
26/03:30am 11.5 NE 7 14 1014.2 - 3.6 - - - - - - -
26/03:00am 11.4 E 8 12 1014.4 - 3.2 Rain - - - - - -
26/02:30am 11.2 E 7 9 1015.1 - 2.8 - - - - - - -
26/02:00am 11.2 SE 4 7 1016.2 - 2.0 - - - - - - -
26/01:30am 11.3 E 3 5 1016.7 - 1.4 - - - - - - -
26/01:00am 11.4 E 5 7 1017.0 - 1.0 - - - - - - -
26/12:30am 11.3 E 3 5 1017.3 - 0.6 - - - - - - -
26/12:00am 11.3 E 5 7 1016.7 - 0.6 Rain - - - - - -
 
Date/Time
EDT
Temp

°C
Wind Pressure Rain
since 9am
mm
Weather Cloud Vis
km
Sea
Height
m
Swell
Dir
 
Speed
knots
Gust
knots
hPa Trend Height
m
Period
s
Dir
25/11:30pm 11.2 SSE 2 3 1017.2 - 0.4 - - - - - - -
25/11:00pm 11.6 S 3 6 1017.4 - 0.0 - - - - - - -
25/10:30pm 11.6 SE 6 8 1017.3 - 0.0 - - - - - - -
25/10:00pm 11.7 SE 8 10 1017.5 - 0.0 - - - - - - -
25/09:30pm 11.7 ESE 7 9 1017.8 - 0.0 - - - - - - -
25/09:00pm 11.6 ESE 7 8 1018.0 - 0.0 - - - - - - -
25/08:30pm 11.5 ESE 7 10 1017.8 - 0.0 - - - - - - -
25/08:00pm 11.9 SE 8 10 1017.6 - 0.0 - - - - - - -
25/07:30pm 12.6 SE 7 10 1017.2 - 0.0 - - - - - - -
25/07:00pm 13.0 SE 7 11 1016.7 - 0.0 - - - - - - -
25/06:30pm 13.1 SE 9 12 1016.5 - 0.0 - - - - - - -
25/06:00pm 13.4 SE 9 13 1016.4 - 0.0 - - - - - - -
25/05:30pm 13.3 SE 10 14 1016.5 - 0.0 - - - - - - -
25/05:00pm 13.7 SE 8 12 1016.5 - 0.0 - - - - - - -
25/04:30pm 13.8 SE 10 14 1016.5 - 0.0 - - - - - - -
25/04:00pm 14.0 SE 11 15 1016.3 - 0.0 - - - - - - -
25/03:30pm 14.6 SE 11 15 1016.1 - 0.0 - - - - - - -
25/03:00pm 15.6 SE 10 13 1016.0 - 0.0 - - - - - - -
25/02:30pm 16.6 ESE 12 15 1016.0 - 0.0 - - - - - - -
25/02:00pm 17.9 SE 11 15 1016.1 - 0.0 - - - - - - -
25/01:30pm 18.7 SE 13 16 1015.9 - 0.0 - - - - - - -
25/01:00pm 19.1 SE 12 16 1015.8 - 0.0 - - - - - - -
25/12:30pm 18.3 ESE 12 15 1015.8 - 0.0 - - - - - - -
25/12:00pm 18.2 SE 11 14 1015.9 - 0.0 - - - - - - -
25/11:30am 18.4 SE 11 15 1015.8 - 0.0 - - - - - - -
25/11:00am 17.1 SE 10 14 1015.8 - 0.0 - - - - - - -
25/10:30am 16.7 SE 8 13 1015.5 - 0.0 - - - - - - -
25/10:00am 16.7 SE 7 11 1015.3 - 0.0 - - - - - - -
25/09:30am 16.2 SE 6 9 1015.0 - 0.0 - - - - - - -
25/09:00am 16.4 ESE 4 6 1014.6 - 1.8 - - - - - - -
25/08:30am 15.1 SSW 1 3 1014.2 - 1.8 - - - - - - -
25/08:00am 14.2 CALM 0 0 1013.8 - 1.8 - - - - - - -
25/07:30am 13.4 CALM 0 0 1013.2 - 1.8 - - - - - - -
25/07:00am 12.7 SE 3 5 1012.8 - 1.8 - - - - - - -
25/06:30am 12.4 SE 3 5 1012.4 - 1.8 - - - - - - -
25/06:00am 12.4 CALM 0 0 1012.1 - 1.8 - - - - - - -
25/05:30am 13.0 S 3 5 1011.5 - 1.8 - - - - - - -
25/05:00am 13.0 SSW 4 7 1010.9 - 1.8 - - - - - - -
25/04:30am 13.1 SSW 4 7 1010.3 - 1.8 - - - - - - -
25/04:00am 13.2 W 5 7 1009.8 - 1.6 - - - - - - -
25/03:30am 13.3 W 5 7 1009.3 - 1.6 - - - - - - -
25/03:00am 13.1 W 4 5 1008.9 - 1.6 - - - - - - -
25/02:30am 13.0 WSW 1 3 1008.7 - 1.6 - - - - - - -
25/02:00am 13.5 W 9 13 1008.2 - 1.6 - - - - - - -
25/01:30am 12.9 CALM 0 2 1008.1 - 1.6 - - - - - - -
25/01:00am 13.0 ESE 2 3 1007.7 - 1.6 - - - - - - -
25/12:30am 13.3 S 1 2 1007.9 - 1.6 - - - - - - -
25/12:00am 13.7 NW 1 4 1008.0 - 1.6 - - - - - - -
 
Date/Time
EDT
Temp

°C
Wind Pressure Rain
since 9am
mm
Weather Cloud Vis
km
Sea
Height
m
Swell
Dir
 
Speed
knots
Gust
knots
hPa Trend Height
m
Period
s
Dir
24/11:30pm 13.8 N 3 4 1008.2 - 1.6 - - - - - - -
24/11:00pm 13.9 NNE 4 5 1008.5 - 1.6 - - - - - - -
24/10:30pm 13.9 CALM 0 0 1009.0 - 1.6 - - - - - - -
24/10:00pm 14.6 CALM 0 0 1009.1 - 1.6 - - - - - - -
24/09:30pm 14.6 CALM 0 0 1008.9 - 1.6 - - - - - - -
24/09:00pm 15.1 N 4 10 1009.2 - 1.6 - - - - - - -
24/08:30pm 14.7 N 6 9 1009.2 - 1.6 - - - - - - -
24/08:00pm 15.0 NNE 6 9 1009.0 - 1.6 - - - - - - -
24/07:30pm 15.2 N 5 9 1009.9 - 1.6 - - - - - - -
24/07:00pm 15.1 N 4 11 1010.0 - 1.4 - - - - - - -
24/06:30pm 15.0 N 9 14 1009.6 - 1.4 - - - - - - -
24/06:00pm 14.9 NNE 9 16 1009.7 - 1.4 Recent precip. - - - - - -
24/05:30pm 14.9 N 10 17 1010.5 - 1.2 - - - - - - -
24/05:00pm 14.8 N 8 15 1011.1 - 1.0 - - - - - - -
24/04:30pm 14.8 NNE 9 14 1011.4 - 0.6 - - - - - - -
24/04:00pm 14.6 NE 7 12 1011.8 - 0.0 - - - - - - -
24/03:30pm 14.9 NNE 8 16 1012.5 - 0.0 - - - - - - -
24/03:00pm 14.7 NE 6 11 1012.9 - 0.0 - - - - - - -
24/02:30pm 14.9 NNE 7 11 1013.6 - 0.0 - - - - - - -
24/02:00pm 14.8 NNE 8 15 1014.3 - 0.0 - - - - - - -
24/01:30pm 14.6 NNE 10 16 1015.0 - 0.0 - - - - - - -
24/01:00pm 14.7 NNE 8 13 1015.6 - 0.0 - - - - - - -
24/12:30pm 14.8 NNE 10 16 1015.9 - 0.0 - - - - - - -
24/12:00pm 14.5 NNE 9 16 1016.5 - 0.0 - - - - - - -
24/11:30am 14.0 NNE 11 16 1017.0 - 0.0 - - - - - - -
24/11:00am 13.7 NNE 9 15 1017.7 - 0.0 - - - - - - -
24/10:30am 13.3 NNE 11 18 1018.1 - 0.0 - - - - - - -
24/10:00am 13.8 NE 12 18 1018.5 - 0.0 - - - - - - -
24/09:30am 13.6 NE 11 17 1019.0 - 0.0 - - - - - - -
24/09:00am 13.0 NE 11 18 1019.7 - 0.0 - - - - - - -
24/08:30am 13.2 NNE 11 18 1020.4 - 0.0 - - - - - - -
24/08:00am 13.0 NE 11 18 1020.5 - 0.0 - - - - - - -
24/07:30am 12.9 NE 11 17 1020.7 - 0.0 - - - - - - -
24/07:00am 12.8 NE 11 17 1020.9 - 0.0 - - - - - - -
24/06:30am 12.5 NE 11 18 1021.1 - 0.0 - - - - - - -
24/06:00am 12.3 NE 10 16 1021.3 - 0.0 - - - - - - -
24/05:30am 12.0 NE 10 15 1021.5 - 0.0 - - - - - - -
24/05:00am 11.8 NE 10 14 1021.8 - 0.0 - - - - - - -
24/04:30am 12.0 NE 11 15 1022.1 - 0.0 - - - - - - -
24/04:00am 12.0 NE 10 14 1022.5 - 0.0 - - - - - - -
24/03:30am 11.8 NNE 9 16 1022.9 - 0.0 - - - - - - -
24/03:00am 11.8 NE 9 13 1023.1 - 0.0 - - - - - - -
24/02:30am 11.8 NE 9 13 1023.4 - 0.0 - - - - - - -
24/02:00am 11.7 NNE 6 12 1024.0 - 0.0 - - - - - - -
24/01:30am 11.6 NE 8 14 1024.2 - 0.0 - - - - - - -
24/01:00am 11.3 NE 9 13 1024.5 - 0.0 - - - - - - -
24/12:30am 11.0 NE 7 11 1024.7 - 0.0 - - - - - - -
24/12:00am 11.2 NNE 7 13 1025.4 - 0.0 - - - - - - -
 
Date/Time
EDT
Temp

°C
Wind Pressure Rain
since 9am
mm
Weather Cloud Vis
km
Sea
Height
m
Swell
Dir
 
Speed
knots
Gust
knots
hPa Trend Height
m
Period
s
Dir
23/11:30pm 11.2 NE 7 11 1025.6 - 0.0 - - - - - - -
23/11:00pm 10.8 ENE 8 11 1026.0 - 0.0 - - - - - - -
23/10:30pm 10.9 ENE 6 10 1026.0 - 0.0 - - - - - - -
23/10:00pm 11.0 ENE 7 10 1026.5 - 0.0 - - - - - - -
23/09:30pm 11.1 E 6 9 1026.7 - 0.0 - - - - - - -
23/09:00pm 11.1 ESE 8 10 1026.5 - 0.0 - - - - - - -
23/08:30pm 11.0 ESE 7 10 1026.3 - 0.0 - - - - - - -
23/08:00pm 11.0 ESE 7 10 1026.0 - 0.0 - - - - - - -
23/07:30pm 11.2 ESE 7 10 1025.8 - 0.0 - - - - - - -
23/07:00pm 12.1 E 7 9 1025.6 - 0.0 - - - - - - -
23/06:30pm 13.9 ESE 8 11 1025.5 - 0.0 - - - - - - -
23/06:00pm 14.7 SE 6 9 1025.4 - 0.0 - - - - - - -
23/05:30pm 15.4 SE 7 9 1025.5 - 0.0 - - - - - - -
23/05:00pm 16.3 SE 9 12 1025.4 - 0.0 - - - - - - -
23/04:30pm 16.9 SE 9 12 1025.3 - 0.0 - - - - - - -
23/04:00pm 17.3 SE 9 12 1025.4 - 0.0 - - - - - - -
23/03:30pm 16.9 SSE 7 10 1025.5 - 0.0 - - - - - - -
23/03:00pm 17.9 SE 10 14 1025.5 - 0.0 - - - - - - -
23/02:30pm 17.1 SE 11 14 1025.6 - 0.0 - - - - - - -
23/02:00pm 17.6 SE 12 16 1025.5 - 0.0 - - - - - - -
23/01:30pm 17.4 SE 12 16 1025.4 - 0.0 - - - - - - -
23/01:00pm 17.5 SE 13 18 1025.2 - 0.0 - - - - - - -
23/12:30pm 17.1 SE 15 19 1025.1 - 0.0 - - - - - - -
23/12:00pm 16.9 SE 15 19 1025.2 - 0.0 - - - - - - -
23/11:30am 16.5 SE 14 18 1025.4 - 0.0 - - - - - - -
23/11:00am 16.6 SE 13 17 1025.6 - 0.0 - - - - - - -
23/10:30am 16.2 SSE 13 17 1025.6 - 0.0 - - - - - - -
23/10:00am 15.7 SSE 12 17 1025.7 - 0.0 - - - - - - -
23/09:30am 13.4 S 9 15 1025.5 - 0.0 - - - - - - -
23/09:00am 14.1 S 9 14 1025.1 - 0.0 - - - - - - -
23/08:30am 13.9 SSE 9 16 1024.9 - 0.0 - - - - - - -
23/08:00am 12.0 S 9 14 1024.5 - 0.0 - - - - - - -
23/07:30am 11.8 S 8 12 1024.1 - 0.0 - - - - - - -
23/07:00am 11.0 S 5 9 1023.6 - 0.0 - - - - - - -
23/06:30am 10.6 S 8 13 1023.1 - 0.0 - - - - - - -
23/06:00am 11.3 S 8 15 1022.7 - 0.0 - - - - - - -

Other Formats:

Comma delimited format used in spreadsheet applications
http://www.bom.gov.au/fwo/IDT60701/IDT60701.94987.axf

JavaScript Object Notation format (JSON) in row-major order
http://www.bom.gov.au/fwo/IDT60701/IDT60701.94987.json